Time;durP1;ratioP1;P1;durP2;ratioP2;P2;SDS_P1;SDS_P2;PMS_P1;PMS_P2;Temp;Humidity;BMP_temperature;BMP_pressure;BME280_temperature;BME280_humidity;BME280_pressure;Samples;Min_cycle;Max_cycle;Signal;HPM_P1;HPM_P2
2021/07/20 00:02:46;;;;;;;7.80;5.70;;;;;;;17.60;60.26;100924.88;4901502;28;97898;-74
2021/07/20 00:05:15;;;;;;;7.72;5.30;;;;;;;17.61;60.77;100923.78;4866192;28;97993;-70
2021/07/20 00:07:42;;;;;;;8.80;5.55;;;;;;;17.60;61.02;100928.41;4885494;28;98316;-74
2021/07/20 00:10:36;;;;;;;7.80;5.38;;;;;;;17.58;60.58;100924.38;4884149;28;119000;-69
2021/07/20 00:13:04;;;;;;;8.13;5.15;;;;;;;17.54;60.27;100926.91;4900579;28;97964;-75
2021/07/20 00:15:30;;;;;;;6.50;4.93;;;;;;;17.54;60.09;100921.47;4901812;28;98131;-70
2021/07/20 00:17:58;;;;;;;8.63;5.35;;;;;;;17.52;59.99;100928.31;4898707;28;127870;-70
2021/07/20 00:20:25;;;;;;;7.38;5.05;;;;;;;17.50;60.11;100923.19;4900517;28;115412;-70
2021/07/20 00:22:51;;;;;;;6.88;5.28;;;;;;;17.49;60.21;100932.47;4902451;28;106373;-74
2021/07/20 00:25:17;;;;;;;8.20;5.28;;;;;;;17.49;60.24;100926.19;4902110;28;111627;-73
2021/07/20 00:27:44;;;;;;;8.10;5.13;;;;;;;17.49;60.28;100928.91;4901716;28;127014;-74
2021/07/20 00:30:11;;;;;;;6.13;4.93;;;;;;;17.47;60.43;100921.06;4884737;28;97782;-70
2021/07/20 00:32:37;;;;;;;6.13;5.22;;;;;;;17.46;60.30;100926.81;4900474;28;105036;-74
2021/07/20 00:35:08;;;;;;;8.40;5.55;;;;;;;17.40;60.10;100921.44;4902240;28;100093;-70
2021/07/20 00:37:36;;;;;;;7.30;5.32;;;;;;;17.39;60.07;100928.00;4884118;28;99715;-70
2021/07/20 00:40:04;;;;;;;6.85;4.90;;;;;;;17.37;60.34;100924.78;4901806;28;109639;-69
2021/07/20 00:42:30;;;;;;;6.97;5.05;;;;;;;17.38;59.99;100925.59;4901513;28;109483;-74
2021/07/20 00:44:56;;;;;;;7.40;5.25;;;;;;;17.37;60.23;100923.97;4901312;28;128500;-74
2021/07/20 00:47:22;;;;;;;8.48;5.38;;;;;;;17.35;60.20;100928.91;4883310;28;127260;-73
2021/07/20 00:49:48;;;;;;;6.90;5.03;;;;;;;17.35;60.30;100927.00;4899241;28;126967;-73
2021/07/20 00:52:14;;;;;;;8.02;5.65;;;;;;;17.33;60.34;100923.78;4883817;28;116625;-70
2021/07/20 00:54:41;;;;;;;6.85;5.07;;;;;;;17.34;60.62;100924.59;4884277;28;98731;-74
2021/07/20 00:57:07;;;;;;;6.35;5.45;;;;;;;17.34;60.21;100922.66;4899886;28;115532;-69
2021/07/20 00:59:33;;;;;;;7.45;4.95;;;;;;;17.33;60.31;100926.50;4884027;28;98072;-74
2021/07/20 01:01:59;;;;;;;5.78;4.85;;;;;;;17.32;60.37;100924.88;4902193;28;98023;-69
2021/07/20 01:04:25;;;;;;;6.57;5.30;;;;;;;17.32;60.41;100922.16;4882908;28;119394;-74
2021/07/20 01:06:52;;;;;;;7.30;5.15;;;;;;;17.31;60.35;100922.47;4883604;28;107145;-69
2021/07/20 01:09:18;;;;;;;7.53;5.50;;;;;;;17.29;60.48;100916.50;4867399;28;97864;-73
2021/07/20 01:11:44;;;;;;;9.27;6.00;;;;;;;17.30;60.54;100915.41;4883739;28;116672;-69
2021/07/20 01:14:10;;;;;;;8.38;5.20;;;;;;;17.29;60.68;100909.16;4882912;28;127125;-73
2021/07/20 01:16:38;;;;;;;7.45;5.03;;;;;;;17.29;60.72;100917.31;4866831;28;125425;-69
2021/07/20 01:19:06;;;;;;;7.38;5.05;;;;;;;17.28;60.54;100909.44;4900251;28;98251;-74
2021/07/20 01:21:34;;;;;;;7.63;5.40;;;;;;;17.28;60.80;100915.69;4901289;28;98049;-69
2021/07/20 01:24:04;;;;;;;8.70;5.50;;;;;;;17.27;60.73;100911.34;4901980;28;98026;-73
2021/07/20 01:26:30;;;;;;;8.00;5.03;;;;;;;17.25;60.83;100907.31;4900221;28;99244;-69
2021/07/20 01:28:56;;;;;;;7.85;5.35;;;;;;;17.23;60.51;100902.16;4882373;28;125949;-73
2021/07/20 01:31:24;;;;;;;8.38;5.30;;;;;;;17.21;60.71;100898.13;4902926;28;118290;-69
2021/07/20 01:33:53;;;;;;;9.35;5.30;;;;;;;17.16;60.75;100908.00;4871182;28;98619;-72
2021/07/20 01:36:19;;;;;;;10.43;5.80;;;;;;;17.11;61.02;100902.66;4903379;28;98262;-69
2021/07/20 01:38:46;;;;;;;8.40;5.82;;;;;;;17.09;61.16;100918.47;4886465;28;108978;-69
2021/07/20 01:41:15;;;;;;;8.55;5.40;;;;;;;17.05;61.13;100909.28;4903315;28;98032;-74
2021/07/20 01:43:55;;;;;;;6.80;5.20;;;;;;;17.01;61.22;100910.19;4902051;28;115760;-73
2021/07/20 01:46:21;;;;;;;7.65;5.50;;;;;;;16.94;61.46;100899.72;4903519;28;98666;-73
2021/07/20 01:48:48;;;;;;;9.10;5.80;;;;;;;16.90;61.49;100909.59;4886296;28;128133;-74
2021/07/20 01:51:14;;;;;;;8.10;5.63;;;;;;;16.83;61.65;100911.88;4887745;28;97821;-69
2021/07/20 01:53:40;;;;;;;7.95;5.20;;;;;;;16.78;61.63;100906.50;4902133;28;98561;-74
2021/07/20 01:56:09;;;;;;;7.10;5.60;;;;;;;16.72;61.81;100900.31;4904902;28;98679;-69
2021/07/20 01:58:42;;;;;;;8.25;5.60;;;;;;;16.63;61.55;100908.38;4903233;28;98214;-69
2021/07/20 02:01:13;;;;;;;8.88;5.78;;;;;;;16.58;62.14;100911.16;4905097;28;97870;-69
2021/07/20 02:08:55;;;;;;;8.57;6.00;;;;;;;16.33;62.55;100912.34;4887349;28;97865;-72
2021/07/20 02:11:28;;;;;;;8.38;5.57;;;;;;;16.25;62.50;100910.31;4871206;28;98102;-73
2021/07/20 02:14:00;;;;;;;8.63;5.80;;;;;;;16.22;62.57;100910.88;4902988;28;98978;-73
2021/07/20 02:16:28;;;;;;;6.68;5.25;;;;;;;16.18;62.89;100907.13;4887053;28;98775;-69
2021/07/20 02:19:02;;;;;;;8.15;6.00;;;;;;;16.13;62.49;100918.09;4885565;28;97937;-73
2021/07/20 02:21:29;;;;;;;7.35;6.00;;;;;;;16.11;62.76;100917.56;4902553;28;98152;-73
2021/07/20 02:23:55;;;;;;;8.50;5.82;;;;;;;16.05;63.31;100919.56;4901153;28;127567;-69
2021/07/20 02:26:21;;;;;;;7.53;6.13;;;;;;;16.02;62.78;100913.91;4902512;28;106819;-73
2021/07/20 02:28:48;;;;;;;8.77;5.82;;;;;;;15.96;63.32;100913.16;4902403;28;115450;-73
2021/07/20 02:31:14;;;;;;;7.95;6.00;;;;;;;15.91;62.99;100921.38;4904242;28;98057;-69
2021/07/20 02:33:41;;;;;;;8.73;6.05;;;;;;;15.84;62.91;100916.31;4885815;28;117585;-73
2021/07/20 02:36:07;;;;;;;8.98;6.15;;;;;;;15.79;63.20;100907.41;4886421;28;109457;-69
2021/07/20 02:38:33;;;;;;;7.60;5.82;;;;;;;15.70;63.56;100907.25;4885846;28;126792;-74
2021/07/20 02:40:59;;;;;;;8.57;6.20;;;;;;;15.66;63.32;100914.34;4900870;28;119942;-69
2021/07/20 02:43:26;;;;;;;8.77;6.38;;;;;;;15.61;63.47;100911.69;4901469;28;103027;-69
2021/07/20 02:45:52;;;;;;;9.13;6.20;;;;;;;15.59;63.51;100911.94;4901216;28;126086;-74
2021/07/20 02:48:19;;;;;;;9.02;6.35;;;;;;;15.57;63.78;100911.44;4885354;28;126173;-69
2021/07/20 02:50:45;;;;;;;9.45;6.47;;;;;;;15.57;63.58;100911.44;4870153;28;97699;-69
2021/07/20 02:53:12;;;;;;;8.45;6.32;;;;;;;15.58;63.57;100914.97;4869955;28;98755;-73
2021/07/20 02:55:38;;;;;;;10.48;6.60;;;;;;;15.56;63.92;100912.56;4900685;28;98170;-74
2021/07/20 02:58:04;;;;;;;8.15;5.80;;;;;;;15.57;63.60;100913.34;4901223;28;125894;-73
2021/07/20 03:00:30;;;;;;;9.18;6.45;;;;;;;15.57;63.53;100911.44;4884154;28;114014;-69
2021/07/20 03:02:56;;;;;;;8.15;6.05;;;;;;;15.58;63.45;100917.69;4885479;28;114420;-69
2021/07/20 03:05:22;;;;;;;8.90;5.85;;;;;;;15.60;63.78;100910.03;4902484;28;125669;-73
2021/07/20 03:07:58;;;;;;;9.38;5.95;;;;;;;15.59;63.37;100922.81;4885603;28;125555;-73
2021/07/20 03:10:29;;;;;;;6.50;5.68;;;;;;;15.61;64.27;100927.97;4886112;28;107006;-69
2021/07/20 03:12:57;;;;;;;7.43;6.10;;;;;;;15.64;64.09;100919.22;4886485;28;98699;-73
2021/07/20 03:15:23;;;;;;;8.50;5.85;;;;;;;15.64;64.33;100925.50;4884933;28;98157;-69
2021/07/20 03:17:49;;;;;;;7.55;5.82;;;;;;;15.66;63.83;100919.78;4901056;28;127244;-69
2021/07/20 03:20:15;;;;;;;8.02;5.78;;;;;;;15.66;64.09;100922.50;4896925;28;116765;-69
2021/07/20 03:22:42;;;;;;;7.05;5.70;;;;;;;15.63;64.09;100923.06;4897922;28;126720;-73
2021/07/20 03:25:09;;;;;;;7.65;6.13;;;;;;;15.64;64.19;100919.22;4895064;28;114444;-69
2021/07/20 03:27:35;;;;;;;8.48;6.07;;;;;;;15.67;64.05;100926.84;4869239;28;120650;-69
2021/07/20 03:30:01;;;;;;;9.20;6.30;;;;;;;15.69;63.97;100927.38;4900603;28;108210;-69
2021/07/20 03:32:28;;;;;;;8.88;6.20;;;;;;;15.71;63.94;100925.97;4900507;28;105062;-75
2021/07/20 03:34:54;;;;;;;9.05;6.13;;;;;;;15.74;64.07;100921.88;4885536;28;98372;-73
2021/07/20 03:37:21;;;;;;;9.02;6.32;;;;;;;15.76;63.96;100916.97;4885218;28;108472;-73
2021/07/20 03:39:47;;;;;;;7.30;5.90;;;;;;;15.77;64.06;100923.19;4900613;28;98199;-74
2021/07/20 03:42:13;;;;;;;8.98;6.18;;;;;;;15.78;63.76;100930.25;4885648;28;106688;-69
2021/07/20 03:44:39;;;;;;;10.07;6.20;;;;;;;15.80;63.75;100930.75;4900984;28;97809;-73
2021/07/20 03:47:06;;;;;;;9.05;6.22;;;;;;;15.81;63.64;100924.25;4884732;28;98207;-69
2021/07/20 03:49:33;;;;;;;8.52;6.07;;;;;;;15.82;63.54;100925.84;4901188;28;97836;-73
2021/07/20 03:51:59;;;;;;;8.80;5.80;;;;;;;15.82;63.67;100921.22;4884055;28;127410;-73
2021/07/20 03:54:27;;;;;;;9.68;6.55;;;;;;;15.83;63.98;100922.03;4884748;28;107592;-69
2021/07/20 03:56:53;;;;;;;9.65;6.15;;;;;;;15.87;63.66;100923.06;4869343;28;97948;-73
2021/07/20 03:59:19;;;;;;;6.45;5.43;;;;;;;15.89;64.10;100921.66;4900599;28;97941;-69
2021/07/20 04:01:45;;;;;;;7.43;5.72;;;;;;;15.94;63.77;100926.22;4900247;28;114781;-69
2021/07/20 04:04:14;;;;;;;7.05;5.50;;;;;;;15.98;63.74;100924.53;4899197;28;126872;-69
2021/07/20 04:06:40;;;;;;;7.10;5.80;;;;;;;16.01;63.96;100923.16;4899743;28;116575;-69
2021/07/20 04:09:10;;;;;;;9.43;6.40;;;;;;;16.05;63.69;100916.84;4884581;28;98206;-73
2021/07/20 04:11:36;;;;;;;7.32;6.18;;;;;;;16.06;63.58;100920.38;4902446;28;99917;-72
2021/07/20 04:14:04;;;;;;;7.57;5.95;;;;;;;16.11;63.75;100925.72;4884479;28;128281;-72
2021/07/20 04:16:30;;;;;;;9.43;6.38;;;;;;;16.14;63.90;100922.44;4884039;28;97942;-69
2021/07/20 04:18:56;;;;;;;6.68;5.65;;;;;;;16.18;63.08;100926.16;4902970;28;97848;-69
2021/07/20 04:21:22;;;;;;;8.02;5.95;;;;;;;16.22;62.77;100915.53;4899671;28;128835;-72
2021/07/20 04:23:50;;;;;;;9.00;5.80;;;;;;;16.23;62.59;100911.69;4869434;28;98664;-69
2021/07/20 04:26:16;;;;;;;8.98;5.93;;;;;;;16.26;63.01;100911.09;4902018;28;98600;-69
2021/07/20 04:28:42;;;;;;;7.20;5.47;;;;;;;16.30;62.78;100915.66;4900414;28;97957;-69
2021/07/20 04:31:08;;;;;;;7.82;5.85;;;;;;;16.34;62.99;100919.41;4901411;28;126057;-69
2021/07/20 04:33:35;;;;;;;9.15;6.07;;;;;;;16.36;63.05;100921.84;4867924;28;114821;-70
2021/07/20 04:36:01;;;;;;;8.25;5.80;;;;;;;16.41;62.42;100919.03;4902013;28;98558;-72
2021/07/20 04:38:31;;;;;;;7.13;5.43;;;;;;;16.44;62.69;100916.53;4901084;28;97776;-69
2021/07/20 04:40:58;;;;;;;6.68;5.50;;;;;;;16.49;62.25;100912.13;4900498;28;97877;-73
2021/07/20 04:43:24;;;;;;;8.60;5.63;;;;;;;16.51;62.48;100918.09;4884326;28;98899;-70
2021/07/20 04:45:53;;;;;;;8.00;5.25;;;;;;;16.53;62.25;100937.63;4883302;28;98199;-73
2021/07/20 04:48:19;;;;;;;7.70;5.32;;;;;;;16.56;62.08;100932.41;4900019;28;100154;-73
2021/07/20 04:50:45;;;;;;;8.15;5.90;;;;;;;16.61;61.86;100932.31;4882650;28;127201;-69
2021/07/20 04:53:12;;;;;;;8.73;5.80;;;;;;;16.62;62.20;100927.69;4901437;28;127716;-69
2021/07/20 04:55:39;;;;;;;7.47;5.60;;;;;;;16.65;62.43;100927.91;4899405;28;113516;-73
2021/07/20 04:58:06;;;;;;;7.82;6.22;;;;;;;16.68;62.32;100938.22;4868955;28;97750;-73
2021/07/20 05:00:33;;;;;;;10.30;6.05;;;;;;;16.73;61.91;100934.63;4899647;28;98410;-69
2021/07/20 05:03:01;;;;;;;5.95;5.15;;;;;;;16.74;61.98;100932.69;4901991;28;117061;-69
2021/07/20 05:05:28;;;;;;;6.97;5.72;;;;;;;16.76;62.28;100942.19;4885586;28;97850;-73
2021/07/20 05:07:55;;;;;;;7.05;5.32;;;;;;;16.80;62.57;100945.13;4887509;28;107823;-73
2021/07/20 05:10:21;;;;;;;7.07;5.30;;;;;;;16.85;62.44;100956.75;4871176;28;98682;-70
2021/07/20 05:12:48;;;;;;;7.20;5.97;;;;;;;16.90;62.19;100958.59;4871246;28;98730;-73
2021/07/20 05:15:16;;;;;;;7.32;5.65;;;;;;;16.89;62.03;100944.16;4886541;28;98482;-73
2021/07/20 05:17:42;;;;;;;8.10;5.70;;;;;;;16.93;62.32;100956.06;4902880;28;102493;-69
2021/07/20 05:20:08;;;;;;;8.38;5.53;;;;;;;16.98;62.41;100951.63;4904089;28;123285;-69
2021/07/20 05:22:35;;;;;;;8.32;5.57;;;;;;;17.00;62.68;100952.97;4871988;28;98096;-69
2021/07/20 05:25:03;;;;;;;8.48;5.82;;;;;;;17.04;62.19;100959.44;4886591;28;108585;-69
2021/07/20 05:27:34;;;;;;;7.28;5.55;;;;;;;17.06;62.24;100959.16;4919365;28;102184;-73
2021/07/20 05:30:00;;;;;;;8.00;5.70;;;;;;;17.10;62.32;100969.13;4871136;28;114419;-69
2021/07/20 05:32:26;;;;;;;7.30;5.47;;;;;;;17.15;62.26;100954.63;4870144;28;118772;-73
2021/07/20 05:34:52;;;;;;;8.70;5.80;;;;;;;17.19;61.94;100961.09;4886875;28;98402;-73
2021/07/20 05:37:21;;;;;;;6.88;5.68;;;;;;;17.21;62.17;100958.03;4903575;28;97875;-73
2021/07/20 05:39:48;;;;;;;8.02;5.00;;;;;;;17.30;62.04;100967.97;4886298;28;128217;-69
2021/07/20 05:42:17;;;;;;;7.65;5.20;;;;;;;17.39;62.08;100968.88;4904918;28;98546;-72
2021/07/20 05:44:45;;;;;;;6.93;5.22;;;;;;;17.50;62.23;100966.78;4904803;28;98235;-70
2021/07/20 05:47:11;;;;;;;7.20;5.40;;;;;;;17.58;61.40;100966.06;4886976;28;98011;-73
2021/07/20 05:49:38;;;;;;;8.07;5.95;;;;;;;17.67;61.33;100974.34;4902976;28;117274;-70
2021/07/20 05:52:04;;;;;;;6.95;5.70;;;;;;;17.76;60.96;100969.03;4902064;28;127690;-70
2021/07/20 05:54:30;;;;;;;7.07;5.53;;;;;;;17.84;60.42;100969.16;4869821;28;123865;-70
2021/07/20 05:56:57;;;;;;;6.38;5.43;;;;;;;17.92;61.07;100970.34;4886944;28;98260;-73
2021/07/20 05:59:23;;;;;;;8.05;5.68;;;;;;;17.99;60.40;100973.47;4886992;28;98502;-73
2021/07/20 06:01:49;;;;;;;6.70;5.63;;;;;;;18.05;60.53;100976.91;4884797;28;127895;-70
2021/07/20 06:04:15;;;;;;;8.23;5.35;;;;;;;18.10;60.06;100979.50;4871272;28;98011;-73
2021/07/20 06:06:41;;;;;;;9.02;6.32;;;;;;;18.13;59.66;100968.00;4885998;28;116996;-70
2021/07/20 06:09:07;;;;;;;7.97;5.93;;;;;;;18.20;59.61;100973.03;4870711;28;111945;-74
2021/07/20 06:11:33;;;;;;;9.00;5.32;;;;;;;18.28;59.52;100983.22;4886423;28;120715;-70
2021/07/20 06:13:59;;;;;;;7.32;5.60;;;;;;;18.34;59.29;100974.59;4903094;28;97946;-70
2021/07/20 06:16:26;;;;;;;8.35;5.50;;;;;;;18.42;59.24;100981.25;4885900;28;97941;-74
2021/07/20 06:18:52;;;;;;;6.82;5.45;;;;;;;18.58;59.13;100989.91;4869536;28;127881;-70
2021/07/20 06:21:20;;;;;;;8.63;5.25;;;;;;;18.72;58.77;101000.81;4903328;28;128090;-73
2021/07/20 06:23:48;;;;;;;6.88;5.10;;;;;;;18.84;58.17;100990.97;4902441;28;99270;-73
2021/07/20 06:26:25;;;;;;;8.13;5.22;;;;;;;19.01;57.85;100993.00;4886889;28;97996;-73
2021/07/20 06:29:02;;;;;;;6.72;4.95;;;;;;;19.17;57.58;100998.06;4934556;28;98339;-72
2021/07/20 06:31:28;;;;;;;7.45;5.22;;;;;;;19.30;57.42;101000.75;4886265;28;99141;-74
2021/07/20 06:33:54;;;;;;;7.50;5.10;;;;;;;19.44;57.05;101006.13;4902354;28;98319;-69
2021/07/20 06:36:21;;;;;;;6.47;5.22;;;;;;;19.61;56.69;101005.41;4901270;28;116703;-70
2021/07/20 06:38:47;;;;;;;7.10;5.13;;;;;;;19.74;56.32;101001.78;4885252;28;111668;-70
2021/07/20 06:41:13;;;;;;;6.95;4.82;;;;;;;19.89;56.01;101005.22;4901757;28;112274;-72
2021/07/20 06:43:39;;;;;;;7.85;5.20;;;;;;;20.00;55.58;101003.78;4885560;28;125317;-73
2021/07/20 06:46:06;;;;;;;7.05;5.22;;;;;;;20.08;56.02;101001.09;4869287;28;115750;-73
2021/07/20 06:48:33;;;;;;;6.07;4.88;;;;;;;20.14;55.56;101003.69;4869645;28;98221;-73
2021/07/20 06:50:59;;;;;;;7.90;4.75;;;;;;;20.19;55.31;100998.84;4884666;28;112398;-70
2021/07/20 06:53:25;;;;;;;7.32;4.90;;;;;;;20.26;55.17;101001.91;4885998;28;101206;-70
2021/07/20 06:55:53;;;;;;;5.20;4.70;;;;;;;20.34;54.77;101003.84;4902363;28;106702;-70
2021/07/20 06:58:20;;;;;;;6.72;4.70;;;;;;;20.45;54.39;101006.31;4903822;28;98673;-70
2021/07/20 07:00:54;;;;;;;6.40;4.68;;;;;;;20.47;54.59;101007.56;4901118;28;98312;-70
2021/07/20 07:03:26;;;;;;;8.00;4.80;;;;;;;20.48;54.73;100998.25;4902365;28;98060;-70
2021/07/20 07:05:53;;;;;;;6.75;4.70;;;;;;;20.53;54.82;101017.28;4886639;28;97991;-74
2021/07/20 07:08:21;;;;;;;7.15;4.75;;;;;;;20.53;54.24;101005.53;4901541;28;114740;-70
2021/07/20 07:10:48;;;;;;;5.35;4.07;;;;;;;20.53;53.66;101005.53;4886527;28;98048;-73
2021/07/20 07:13:15;;;;;;;5.65;4.70;;;;;;;20.53;53.44;101013.75;4900436;28;116053;-73
2021/07/20 07:15:41;;;;;;;7.32;4.80;;;;;;;20.54;54.30;101015.34;4900618;28;98022;-73
2021/07/20 07:18:07;;;;;;;7.57;4.60;;;;;;;20.54;54.20;101007.13;4884585;28;128513;-73
2021/07/20 07:20:33;;;;;;;6.50;4.30;;;;;;;20.55;53.97;101009.56;4886247;28;98168;-74
2021/07/20 07:23:00;;;;;;;6.75;4.60;;;;;;;20.54;53.95;101016.16;4885617;28;98167;-70
2021/07/20 07:25:27;;;;;;;6.70;4.72;;;;;;;20.55;54.31;101020.53;4901060;28;97953;-70
2021/07/20 07:27:53;;;;;;;7.22;4.50;;;;;;;20.57;53.03;101011.97;4881308;28;125751;-70
2021/07/20 07:30:19;;;;;;;5.22;4.47;;;;;;;20.63;52.98;101020.81;4866871;28;99387;-70
2021/07/20 07:32:48;;;;;;;5.65;4.50;;;;;;;20.65;53.15;101015.84;4883910;28;116038;-74
2021/07/20 07:35:14;;;;;;;5.38;4.78;;;;;;;20.73;53.44;101018.56;4895374;28;97812;-74
2021/07/20 07:37:40;;;;;;;8.70;4.95;;;;;;;20.84;53.53;101017.13;4868089;28;126430;-70
2021/07/20 07:40:08;;;;;;;7.90;4.70;;;;;;;21.06;52.04;101013.41;4885522;28;98426;-74
2021/07/20 07:42:35;;;;;;;7.97;5.10;;;;;;;21.43;51.78;101011.09;4885465;28;98474;-74
2021/07/20 07:45:02;;;;;;;6.65;4.40;;;;;;;21.84;50.51;101020.59;4885316;28;97989;-73
2021/07/20 07:47:28;;;;;;;5.47;4.40;;;;;;;21.99;49.79;101016.50;4902249;28;110020;-70
2021/07/20 07:49:54;;;;;;;5.22;4.25;;;;;;;22.06;49.30;101022.28;4899608;28;125217;-70
2021/07/20 07:52:20;;;;;;;10.43;4.43;;;;;;;22.02;49.10;101022.13;4900278;28;103869;-70
2021/07/20 07:54:46;;;;;;;6.55;4.38;;;;;;;21.99;49.78;101020.06;4900134;28;118242;-70
2021/07/20 07:57:15;;;;;;;6.60;4.10;;;;;;;21.91;50.25;101015.41;4902405;28;98306;-69
2021/07/20 07:59:41;;;;;;;5.63;4.30;;;;;;;21.81;49.78;101018.50;4884653;28;98132;-70
2021/07/20 08:02:11;;;;;;;5.53;4.03;;;;;;;21.72;50.11;101021.31;4867509;28;126925;-70
2021/07/20 08:04:37;;;;;;;5.85;4.10;;;;;;;21.66;50.57;101013.59;4884057;28;103348;-74
2021/07/20 08:07:04;;;;;;;7.15;4.32;;;;;;;21.57;50.77;101019.09;4868433;28;99819;-74
2021/07/20 08:09:30;;;;;;;5.90;4.30;;;;;;;21.51;50.79;101014.94;4899991;28;127315;-74
2021/07/20 08:11:59;;;;;;;6.78;4.28;;;;;;;21.46;50.69;101015.94;4884602;28;98505;-70
2021/07/20 08:14:26;;;;;;;6.88;3.97;;;;;;;21.44;50.78;101017.38;4900478;28;97959;-70
2021/07/20 08:16:58;;;;;;;5.75;4.15;;;;;;;21.43;51.11;101013.84;4899480;28;116574;-70
2021/07/20 08:19:27;;;;;;;5.60;3.92;;;;;;;21.48;51.30;101016.38;4900796;28;99744;-74
2021/07/20 08:21:59;;;;;;;6.35;4.13;;;;;;;21.48;50.99;101019.13;4869205;28;98242;-75
2021/07/20 08:24:26;;;;;;;5.40;4.30;;;;;;;21.46;50.77;101015.94;4903294;28;97821;-74
2021/07/20 08:27:03;;;;;;;7.10;4.53;;;;;;;21.46;50.88;101013.19;4883602;28;116170;-74
2021/07/20 08:29:36;;;;;;;6.13;4.25;;;;;;;21.55;50.70;101016.69;4870977;28;98099;-74
2021/07/20 08:32:09;;;;;;;7.20;4.43;;;;;;;21.77;50.32;101023.88;4900541;28;97945;-70
2021/07/20 08:34:40;;;;;;;6.13;4.22;;;;;;;22.07;49.79;101021.13;4885162;28;97990;-73
2021/07/20 08:37:06;;;;;;;6.07;3.90;;;;;;;22.44;47.99;101015.91;4869301;28;98580;-74
2021/07/20 08:39:32;;;;;;;5.38;4.00;;;;;;;22.85;47.20;101014.31;4881789;28;115434;-70
2021/07/20 08:42:44;;;;;;;5.72;3.72;;;;;;;23.46;46.56;101012.59;4866921;28;126383;-74
2021/07/20 08:45:41;;;;;;;7.07;3.80;;;;;;;24.89;44.15;101005.22;4900607;28;98294;-74
2021/07/20 08:48:39;;;;;;;4.63;3.75;;;;;;;25.54;42.42;101014.06;4898686;28;105913;-74
2021/07/20 08:51:11;;;;;;;4.57;3.35;;;;;;;26.31;40.70;101001.72;4899463;28;114095;-70
2021/07/20 08:54:06;;;;;;;4.97;3.35;;;;;;;28.09;38.52;101009.78;4900598;28;98096;-71
2021/07/20 08:56:33;;;;;;;5.25;3.10;;;;;;;28.48;36.65;101015.09;4886086;28;97915;-75
2021/07/20 08:59:03;;;;;;;4.78;3.47;;;;;;;30.51;34.11;101010.63;4867436;28;114025;-74
2021/07/20 09:01:41;;;;;;;5.82;3.08;;;;;;;30.29;34.87;101010.50;4899453;28;98500;-75
2021/07/20 09:04:11;;;;;;;4.82;2.85;;;;;;;29.71;35.40;101011.31;4901539;28;98252;-71
2021/07/20 09:06:48;;;;;;;4.53;2.60;;;;;;;29.29;35.78;101003.38;4898881;28;106000;-71
2021/07/20 09:09:24;;;;;;;3.50;2.30;;;;;;;28.88;35.04;101006.06;4900265;28;98687;-71
2021/07/20 09:12:28;;;;;;;3.70;2.60;;;;;;;28.54;36.25;100999.75;4899687;28;99369;-75
2021/07/20 09:15:04;;;;;;;4.25;2.40;;;;;;;28.14;36.35;100984.56;4901137;28;108068;-71
2021/07/20 09:18:13;;;;;;;5.57;2.60;;;;;;;27.79;36.34;100995.91;4885551;28;97850;-71
2021/07/20 09:20:41;;;;;;;3.40;2.45;;;;;;;27.29;35.83;100995.81;4881930;28;98996;-76
2021/07/20 09:23:23;;;;;;;4.03;2.60;;;;;;;26.96;37.43;100993.63;4880972;28;99071;-74
2021/07/20 09:26:16;;;;;;;3.85;2.28;;;;;;;26.71;37.50;100995.88;4893308;28;98131;-75
2021/07/20 09:29:14;;;;;;;5.75;2.45;;;;;;;26.34;37.95;100981.66;4900172;28;98102;-74
2021/07/20 09:31:46;;;;;;;2.95;2.00;;;;;;;26.02;38.23;100986.47;4879737;28;98103;-73
2021/07/20 09:34:42;;;;;;;4.13;2.30;;;;;;;25.91;37.92;100986.22;4882609;28;98791;-75
2021/07/20 09:37:11;;;;;;;4.60;2.30;;;;;;;25.68;37.79;100983.28;4880631;28;98099;-74
2021/07/20 09:40:10;;;;;;;3.88;2.00;;;;;;;25.33;38.44;100986.75;4880366;28;98157;-75
2021/07/20 09:42:42;;;;;;;3.13;2.00;;;;;;;24.92;38.88;100993.50;4879183;28;105124;-74
2021/07/20 09:45:17;;;;;;;2.67;1.90;;;;;;;24.58;39.14;100992.94;4892227;28;97920;-73
2021/07/20 09:48:03;;;;;;;2.78;1.90;;;;;;;24.22;40.01;100985.56;4901928;28;99223;-70
2021/07/20 09:50:35;;;;;;;4.88;2.08;;;;;;;23.88;40.46;100990.38;4900278;28;98077;-69
2021/07/20 09:53:41;;;;;;;3.85;2.38;;;;;;;23.48;41.31;100988.28;4887205;28;113625;-70
2021/07/20 09:56:50;;;;;;;4.13;2.67;;;;;;;23.07;42.33;100981.00;4899364;28;98266;-74
2021/07/20 09:59:55;;;;;;;4.25;2.60;;;;;;;22.75;43.19;100974.31;4904116;28;97896;-70
2021/07/20 10:02:42;;;;;;;4.60;2.50;;;;;;;22.54;44.02;100980.63;4903152;28;98057;-69
2021/07/20 10:05:31;;;;;;;4.65;2.55;;;;;;;22.36;44.38;100978.34;4889072;28;98742;-74
2021/07/20 10:08:03;;;;;;;5.18;2.80;;;;;;;22.20;44.88;100969.91;4902643;28;98241;-74
2021/07/20 10:10:53;;;;;;;3.85;2.83;;;;;;;22.11;45.09;100974.63;4886967;28;97906;-69
2021/07/20 10:13:36;;;;;;;3.67;2.80;;;;;;;22.09;45.27;100980.47;4887558;28;99731;-69
2021/07/20 10:17:04;;;;;;;4.35;2.75;;;;;;;22.17;45.44;100978.81;4901397;28;116310;-73
2021/07/20 10:19:48;;;;;;;7.07;3.15;;;;;;;22.31;45.57;100982.09;4866322;28;98491;-69
2021/07/20 10:22:17;;;;;;;4.68;3.03;;;;;;;22.46;45.63;100977.97;4886540;28;108440;-74
2021/07/20 10:24:59;;;;;;;5.00;2.92;;;;;;;22.60;45.21;100969.44;4902618;28;99531;-73
2021/07/20 10:27:50;;;;;;;4.93;3.00;;;;;;;22.77;44.43;100977.53;4902835;28;98921;-74
2021/07/20 10:30:16;;;;;;;4.28;2.80;;;;;;;23.00;43.85;100986.25;4904444;28;98308;-74
2021/07/20 10:33:08;;;;;;;3.67;2.58;;;;;;;23.30;43.58;100988.81;4869128;28;126098;-74
2021/07/20 10:35:43;;;;;;;6.53;2.85;;;;;;;23.75;43.18;100988.81;4901709;28;97786;-74
2021/07/20 10:38:14;;;;;;;4.90;2.90;;;;;;;24.15;41.78;100986.13;4872018;28;98834;-73
2021/07/20 10:40:40;;;;;;;4.32;2.95;;;;;;;24.91;41.04;100976.13;4901466;28;117610;-75
2021/07/20 10:43:21;;;;;;;3.83;3.13;;;;;;;27.18;37.25;100978.22;4869399;28;126598;-74
2021/07/20 10:45:48;;;;;;;4.82;3.33;;;;;;;26.78;38.06;100978.63;4886646;28;109530;-69
2021/07/20 10:48:17;;;;;;;3.97;2.67;;;;;;;26.20;38.50;100980.16;4870296;28;98543;-74
2021/07/20 10:51:14;;;;;;;5.68;3.38;;;;;;;25.59;39.37;100977.94;4901641;28;97929;-73
2021/07/20 10:54:07;;;;;;;5.95;2.78;;;;;;;24.94;40.58;100974.66;4903927;28;98760;-69
2021/07/20 10:56:41;;;;;;;5.50;3.05;;;;;;;24.35;40.96;100983.56;4872098;28;98117;-69
2021/07/20 10:59:29;;;;;;;5.63;3.03;;;;;;;23.84;41.61;100983.19;4900894;28;98234;-69
2021/07/20 11:02:26;;;;;;;4.40;2.70;;;;;;;23.36;42.82;100980.03;4902276;28;99369;-74
2021/07/20 11:05:04;;;;;;;5.00;3.40;;;;;;;23.05;43.44;100976.97;4901280;28;113210;-74
2021/07/20 11:07:45;;;;;;;4.70;3.15;;;;;;;22.76;44.06;100975.94;4903640;28;97968;-69
2021/07/20 11:10:36;;;;;;;4.28;3.25;;;;;;;22.58;44.59;100968.97;4903317;28;97849;-72
2021/07/20 11:13:10;;;;;;;3.80;3.20;;;;;;;22.34;45.17;100978.69;4893168;28;99179;-73
2021/07/20 11:15:37;;;;;;;4.63;3.13;;;;;;;22.23;45.71;100985.72;4899169;28;99577;-68
2021/07/20 11:18:14;;;;;;;5.25;3.40;;;;;;;22.10;46.03;100976.56;4901196;28;108737;-73
2021/07/20 11:20:43;;;;;;;5.05;3.28;;;;;;;22.03;46.38;100977.09;4900775;28;128149;-73
2021/07/20 11:23:09;;;;;;;5.53;3.38;;;;;;;22.04;46.51;100980.63;4900141;28;128238;-73
2021/07/20 11:25:38;;;;;;;4.93;3.30;;;;;;;22.00;46.54;100980.47;4900996;28;98229;-73
2021/07/20 11:28:04;;;;;;;5.28;3.35;;;;;;;22.02;46.46;100982.91;4901588;28;108339;-73
2021/07/20 11:30:32;;;;;;;4.97;3.42;;;;;;;22.02;46.65;100983.72;4901342;28;98264;-72
2021/07/20 11:33:04;;;;;;;5.88;3.40;;;;;;;22.08;46.72;100978.03;4885586;28;98300;-69
2021/07/20 11:35:34;;;;;;;4.13;3.40;;;;;;;22.17;46.71;100974.13;4900161;28;113028;-73
2021/07/20 11:38:10;;;;;;;6.65;3.58;;;;;;;22.30;45.99;100975.00;4901938;28;106023;-68
2021/07/20 11:41:09;;;;;;;7.13;3.28;;;;;;;22.42;46.32;100975.06;4901547;28;98599;-72
2021/07/20 11:43:50;;;;;;;5.00;3.15;;;;;;;22.63;45.79;100980.53;4889419;28;98678;-69
2021/07/20 11:46:21;;;;;;;3.72;3.30;;;;;;;22.83;45.85;100973.41;4901403;28;98069;-73